Eden, Georgia
Current Conditions -  °F | °C
As of 8:53 PM on Saturday 22 Nov 2014 (Local Time) from KSAV Reporting Station
Light Rain Light Rain  
Wind Chill: 59°   Ceiling: 4600
Heat Index: 59°   Visibility: 10mi
Dew Point: 54°   Wind: 8mph
Humidity: 83%   Direction: 80°E
Pressure: 30.27"   Gusts: NA
Location:  32.17°N, 81.39°W
Report Text: KSAV 230153Z 08007KT 10SM -RA BKN046 BKN070 BKN090 15/12 A3027 RMK AO2 RAB26 SLP250 P0000 T01500122
Loading
Personal Weather Stations






























Interactive Weather Map New forecast layout! Learn more

10-Day Weather Forecast

Advertisements
Track Severe Weather on mobile